sensor_id;sensor_type;location;lat;lon;timestamp;P1;durP1;ratioP1;P2;durP2;ratioP2
14104;SDS011;7130;52.484;4.766;2022-07-10T00:00:27;3.85;;;2.03;;
14104;SDS011;7130;52.484;4.766;2022-07-10T00:02:54;4.80;;;2.10;;
14104;SDS011;7130;52.484;4.766;2022-07-10T00:05:23;6.35;;;2.47;;
14104;SDS011;7130;52.484;4.766;2022-07-10T00:07:50;5.93;;;2.17;;
14104;SDS011;7130;52.484;4.766;2022-07-10T00:10:18;4.55;;;1.80;;
14104;SDS011;7130;52.484;4.766;2022-07-10T00:12:45;5.93;;;2.10;;
14104;SDS011;7130;52.484;4.766;2022-07-10T00:15:13;5.50;;;2.03;;
14104;SDS011;7130;52.484;4.766;2022-07-10T00:17:40;6.70;;;2.37;;
14104;SDS011;7130;52.484;4.766;2022-07-10T00:20:08;5.28;;;2.25;;
14104;SDS011;7130;52.484;4.766;2022-07-10T00:22:37;4.47;;;1.87;;
14104;SDS011;7130;52.484;4.766;2022-07-10T00:25:05;6.05;;;2.45;;
14104;SDS011;7130;52.484;4.766;2022-07-10T00:27:32;6.72;;;2.30;;
14104;SDS011;7130;52.484;4.766;2022-07-10T00:29:59;8.07;;;2.33;;
14104;SDS011;7130;52.484;4.766;2022-07-10T00:32:27;6.45;;;2.30;;
14104;SDS011;7130;52.484;4.766;2022-07-10T00:34:54;5.13;;;1.98;;
14104;SDS011;7130;52.484;4.766;2022-07-10T00:37:21;5.30;;;2.03;;
14104;SDS011;7130;52.484;4.766;2022-07-10T00:39:50;6.70;;;2.25;;
14104;SDS011;7130;52.484;4.766;2022-07-10T00:42:17;6.13;;;2.30;;
14104;SDS011;7130;52.484;4.766;2022-07-10T00:44:44;4.80;;;2.10;;
14104;SDS011;7130;52.484;4.766;2022-07-10T00:47:11;4.60;;;2.17;;
14104;SDS011;7130;52.484;4.766;2022-07-10T00:49:42;7.78;;;2.35;;
14104;SDS011;7130;52.484;4.766;2022-07-10T00:52:10;8.98;;;2.30;;
14104;SDS011;7130;52.484;4.766;2022-07-10T00:54:37;5.93;;;1.90;;
14104;SDS011;7130;52.484;4.766;2022-07-10T00:57:06;5.45;;;2.20;;
14104;SDS011;7130;52.484;4.766;2022-07-10T00:59:34;6.15;;;2.40;;
14104;SDS011;7130;52.484;4.766;2022-07-10T01:02:02;5.28;;;1.85;;
14104;SDS011;7130;52.484;4.766;2022-07-10T01:04:29;4.95;;;2.38;;
14104;SDS011;7130;52.484;4.766;2022-07-10T01:06:56;6.25;;;2.15;;
14104;SDS011;7130;52.484;4.766;2022-07-10T01:09:23;5.82;;;2.40;;
14104;SDS011;7130;52.484;4.766;2022-07-10T01:11:51;6.55;;;2.13;;
14104;SDS011;7130;52.484;4.766;2022-07-10T01:14:19;8.30;;;2.22;;
14104;SDS011;7130;52.484;4.766;2022-07-10T01:16:47;6.75;;;2.35;;
14104;SDS011;7130;52.484;4.766;2022-07-10T01:19:14;5.05;;;2.40;;
14104;SDS011;7130;52.484;4.766;2022-07-10T01:21:43;5.47;;;2.03;;
14104;SDS011;7130;52.484;4.766;2022-07-10T01:24:10;5.87;;;2.30;;
14104;SDS011;7130;52.484;4.766;2022-07-10T01:26:38;5.32;;;2.28;;
14104;SDS011;7130;52.484;4.766;2022-07-10T01:29:08;6.95;;;2.55;;
14104;SDS011;7130;52.484;4.766;2022-07-10T01:31:36;5.53;;;1.83;;
14104;SDS011;7130;52.484;4.766;2022-07-10T01:34:04;6.47;;;2.42;;
14104;SDS011;7130;52.484;4.766;2022-07-10T01:36:31;5.68;;;2.53;;
14104;SDS011;7130;52.484;4.766;2022-07-10T01:39:00;5.33;;;2.33;;
14104;SDS011;7130;52.484;4.766;2022-07-10T01:41:27;5.55;;;2.00;;
14104;SDS011;7130;52.484;4.766;2022-07-10T01:43:54;7.57;;;2.45;;
14104;SDS011;7130;52.484;4.766;2022-07-10T01:46:21;6.50;;;2.50;;
14104;SDS011;7130;52.484;4.766;2022-07-10T01:48:49;4.93;;;2.10;;
14104;SDS011;7130;52.484;4.766;2022-07-10T01:51:16;5.57;;;1.98;;
14104;SDS011;7130;52.484;4.766;2022-07-10T01:53:43;7.30;;;2.20;;
14104;SDS011;7130;52.484;4.766;2022-07-10T01:56:12;7.37;;;2.30;;
14104;SDS011;7130;52.484;4.766;2022-07-10T01:58:40;3.35;;;1.73;;
14104;SDS011;7130;52.484;4.766;2022-07-10T02:01:07;5.45;;;2.10;;
14104;SDS011;7130;52.484;4.766;2022-07-10T02:03:34;5.78;;;2.40;;
14104;SDS011;7130;52.484;4.766;2022-07-10T02:06:19;6.50;;;2.13;;
14104;SDS011;7130;52.484;4.766;2022-07-10T02:08:46;7.60;;;2.50;;
14104;SDS011;7130;52.484;4.766;2022-07-10T02:11:15;4.70;;;2.30;;
14104;SDS011;7130;52.484;4.766;2022-07-10T02:13:42;5.28;;;2.05;;
14104;SDS011;7130;52.484;4.766;2022-07-10T02:16:09;4.88;;;2.03;;
14104;SDS011;7130;52.484;4.766;2022-07-10T02:18:36;6.00;;;2.20;;
14104;SDS011;7130;52.484;4.766;2022-07-10T02:21:04;7.47;;;2.15;;
14104;SDS011;7130;52.484;4.766;2022-07-10T02:23:32;4.85;;;1.98;;
14104;SDS011;7130;52.484;4.766;2022-07-10T02:25:59;5.75;;;2.22;;
14104;SDS011;7130;52.484;4.766;2022-07-10T02:28:27;6.55;;;2.20;;
14104;SDS011;7130;52.484;4.766;2022-07-10T02:30:54;6.93;;;2.17;;
14104;SDS011;7130;52.484;4.766;2022-07-10T02:33:21;5.78;;;2.40;;
14104;SDS011;7130;52.484;4.766;2022-07-10T02:35:48;5.82;;;2.20;;
14104;SDS011;7130;52.484;4.766;2022-07-10T02:38:16;4.47;;;2.00;;
14104;SDS011;7130;52.484;4.766;2022-07-10T02:40:43;5.80;;;2.20;;
14104;SDS011;7130;52.484;4.766;2022-07-10T02:43:10;6.45;;;2.40;;
14104;SDS011;7130;52.484;4.766;2022-07-10T02:45:38;5.10;;;1.80;;
14104;SDS011;7130;52.484;4.766;2022-07-10T02:48:05;7.07;;;2.20;;
14104;SDS011;7130;52.484;4.766;2022-07-10T02:50:32;5.95;;;2.45;;
14104;SDS011;7130;52.484;4.766;2022-07-10T02:52:59;6.07;;;2.15;;
14104;SDS011;7130;52.484;4.766;2022-07-10T02:55:28;6.13;;;2.40;;
14104;SDS011;7130;52.484;4.766;2022-07-10T02:57:56;5.03;;;2.40;;
14104;SDS011;7130;52.484;4.766;2022-07-10T03:00:23;4.30;;;1.92;;
14104;SDS011;7130;52.484;4.766;2022-07-10T03:02:52;5.70;;;2.20;;
14104;SDS011;7130;52.484;4.766;2022-07-10T03:05:19;5.80;;;2.33;;
14104;SDS011;7130;52.484;4.766;2022-07-10T03:07:46;8.80;;;2.63;;
14104;SDS011;7130;52.484;4.766;2022-07-10T03:10:13;7.23;;;2.30;;
14104;SDS011;7130;52.484;4.766;2022-07-10T03:12:40;6.05;;;2.22;;
14104;SDS011;7130;52.484;4.766;2022-07-10T03:15:08;7.13;;;2.42;;
14104;SDS011;7130;52.484;4.766;2022-07-10T03:17:35;6.93;;;2.50;;
14104;SDS011;7130;52.484;4.766;2022-07-10T03:20:04;6.53;;;2.50;;
14104;SDS011;7130;52.484;4.766;2022-07-10T03:22:31;5.50;;;2.13;;
14104;SDS011;7130;52.484;4.766;2022-07-10T03:24:58;6.90;;;2.92;;
14104;SDS011;7130;52.484;4.766;2022-07-10T03:27:26;5.93;;;2.22;;
14104;SDS011;7130;52.484;4.766;2022-07-10T03:29:53;6.60;;;2.63;;
14104;SDS011;7130;52.484;4.766;2022-07-10T03:32:20;7.47;;;2.40;;
14104;SDS011;7130;52.484;4.766;2022-07-10T03:34:47;6.28;;;2.72;;
14104;SDS011;7130;52.484;4.766;2022-07-10T03:37:15;5.38;;;2.42;;
14104;SDS011;7130;52.484;4.766;2022-07-10T03:39:42;6.43;;;2.47;;
14104;SDS011;7130;52.484;4.766;2022-07-10T03:42:09;6.95;;;2.58;;
14104;SDS011;7130;52.484;4.766;2022-07-10T03:44:36;6.20;;;2.40;;
14104;SDS011;7130;52.484;4.766;2022-07-10T03:47:03;7.18;;;2.28;;
14104;SDS011;7130;52.484;4.766;2022-07-10T03:49:30;8.00;;;2.80;;
14104;SDS011;7130;52.484;4.766;2022-07-10T03:51:58;7.97;;;2.75;;
14104;SDS011;7130;52.484;4.766;2022-07-10T03:54:27;6.45;;;2.42;;
14104;SDS011;7130;52.484;4.766;2022-07-10T03:56:54;8.80;;;2.50;;
14104;SDS011;7130;52.484;4.766;2022-07-10T03:59:39;8.80;;;2.55;;
14104;SDS011;7130;52.484;4.766;2022-07-10T04:02:07;5.07;;;2.50;;
14104;SDS011;7130;52.484;4.766;2022-07-10T04:04:34;8.15;;;2.58;;
14104;SDS011;7130;52.484;4.766;2022-07-10T04:07:01;6.13;;;2.42;;
14104;SDS011;7130;52.484;4.766;2022-07-10T04:09:30;9.18;;;2.72;;
14104;SDS011;7130;52.484;4.766;2022-07-10T04:11:58;5.97;;;2.42;;
14104;SDS011;7130;52.484;4.766;2022-07-10T04:14:25;6.13;;;2.42;;
14104;SDS011;7130;52.484;4.766;2022-07-10T04:16:52;6.40;;;2.30;;
14104;SDS011;7130;52.484;4.766;2022-07-10T04:19:19;7.32;;;2.58;;
14104;SDS011;7130;52.484;4.766;2022-07-10T04:21:46;6.10;;;2.20;;
14104;SDS011;7130;52.484;4.766;2022-07-10T04:24:14;6.22;;;2.20;;
14104;SDS011;7130;52.484;4.766;2022-07-10T04:26:42;4.95;;;2.15;;
14104;SDS011;7130;52.484;4.766;2022-07-10T04:29:09;6.15;;;2.35;;
14104;SDS011;7130;52.484;4.766;2022-07-10T04:31:36;5.95;;;2.10;;
14104;SDS011;7130;52.484;4.766;2022-07-10T04:34:03;5.35;;;2.40;;
14104;SDS011;7130;52.484;4.766;2022-07-10T04:36:31;7.53;;;2.70;;
14104;SDS011;7130;52.484;4.766;2022-07-10T04:38:58;7.18;;;2.50;;
14104;SDS011;7130;52.484;4.766;2022-07-10T04:41:25;5.55;;;2.40;;
14104;SDS011;7130;52.484;4.766;2022-07-10T04:43:53;6.72;;;2.53;;
14104;SDS011;7130;52.484;4.766;2022-07-10T04:46:20;7.30;;;2.50;;
14104;SDS011;7130;52.484;4.766;2022-07-10T04:48:47;5.93;;;2.50;;
14104;SDS011;7130;52.484;4.766;2022-07-10T04:51:15;7.50;;;2.65;;
14104;SDS011;7130;52.484;4.766;2022-07-10T04:53:42;7.90;;;2.40;;
14104;SDS011;7130;52.484;4.766;2022-07-10T04:56:10;5.65;;;2.35;;
14104;SDS011;7130;52.484;4.766;2022-07-10T04:58:37;5.47;;;2.20;;
14104;SDS011;7130;52.484;4.766;2022-07-10T05:01:06;5.83;;;2.03;;
14104;SDS011;7130;52.484;4.766;2022-07-10T05:03:33;6.68;;;2.40;;
14104;SDS011;7130;52.484;4.766;2022-07-10T05:06:00;7.03;;;2.38;;
14104;SDS011;7130;52.484;4.766;2022-07-10T05:08:27;5.95;;;2.10;;
14104;SDS011;7130;52.484;4.766;2022-07-10T05:10:54;3.67;;;1.98;;
14104;SDS011;7130;52.484;4.766;2022-07-10T05:13:22;6.45;;;2.13;;
14104;SDS011;7130;52.484;4.766;2022-07-10T05:15:49;6.50;;;2.00;;
14104;SDS011;7130;52.484;4.766;2022-07-10T05:18:17;5.03;;;2.13;;
14104;SDS011;7130;52.484;4.766;2022-07-10T05:20:44;4.93;;;2.10;;
14104;SDS011;7130;52.484;4.766;2022-07-10T05:23:13;3.78;;;1.83;;
14104;SDS011;7130;52.484;4.766;2022-07-10T05:25:40;7.25;;;2.30;;
14104;SDS011;7130;52.484;4.766;2022-07-10T05:28:07;3.97;;;1.87;;
14104;SDS011;7130;52.484;4.766;2022-07-10T05:30:34;4.95;;;1.70;;
14104;SDS011;7130;52.484;4.766;2022-07-10T05:33:02;5.72;;;2.08;;
14104;SDS011;7130;52.484;4.766;2022-07-10T05:35:30;5.68;;;1.90;;
14104;SDS011;7130;52.484;4.766;2022-07-10T05:37:57;4.18;;;1.85;;
14104;SDS011;7130;52.484;4.766;2022-07-10T05:40:24;5.82;;;2.08;;
14104;SDS011;7130;52.484;4.766;2022-07-10T05:42:52;5.88;;;2.00;;
14104;SDS011;7130;52.484;4.766;2022-07-10T05:45:19;5.35;;;1.90;;
14104;SDS011;7130;52.484;4.766;2022-07-10T05:47:46;5.18;;;1.98;;
14104;SDS011;7130;52.484;4.766;2022-07-10T05:50:13;3.40;;;1.52;;
14104;SDS011;7130;52.484;4.766;2022-07-10T05:52:42;5.90;;;1.70;;
14104;SDS011;7130;52.484;4.766;2022-07-10T05:55:09;4.55;;;1.70;;
14104;SDS011;7130;52.484;4.766;2022-07-10T05:57:36;4.38;;;2.03;;
14104;SDS011;7130;52.484;4.766;2022-07-10T06:00:04;4.20;;;1.80;;
14104;SDS011;7130;52.484;4.766;2022-07-10T06:02:31;3.93;;;1.60;;
14104;SDS011;7130;52.484;4.766;2022-07-10T06:04:58;3.80;;;1.67;;
14104;SDS011;7130;52.484;4.766;2022-07-10T06:07:25;4.78;;;1.80;;
14104;SDS011;7130;52.484;4.766;2022-07-10T06:09:54;4.25;;;1.77;;
14104;SDS011;7130;52.484;4.766;2022-07-10T06:12:21;5.43;;;1.90;;
14104;SDS011;7130;52.484;4.766;2022-07-10T06:14:48;3.75;;;1.80;;
14104;SDS011;7130;52.484;4.766;2022-07-10T06:17:15;3.73;;;1.90;;
14104;SDS011;7130;52.484;4.766;2022-07-10T06:19:42;4.47;;;1.80;;
14104;SDS011;7130;52.484;4.766;2022-07-10T06:22:09;3.90;;;1.58;;
14104;SDS011;7130;52.484;4.766;2022-07-10T06:24:56;4.20;;;1.63;;
14104;SDS011;7130;52.484;4.766;2022-07-10T06:27:23;3.10;;;1.50;;
14104;SDS011;7130;52.484;4.766;2022-07-10T06:29:50;4.40;;;2.10;;
14104;SDS011;7130;52.484;4.766;2022-07-10T06:32:19;4.30;;;1.60;;
14104;SDS011;7130;52.484;4.766;2022-07-10T06:34:46;4.30;;;1.80;;
14104;SDS011;7130;52.484;4.766;2022-07-10T06:37:13;3.83;;;1.65;;
14104;SDS011;7130;52.484;4.766;2022-07-10T06:39:41;4.43;;;1.80;;
14104;SDS011;7130;52.484;4.766;2022-07-10T06:42:09;3.55;;;1.60;;
14104;SDS011;7130;52.484;4.766;2022-07-10T06:44:37;4.47;;;1.98;;
14104;SDS011;7130;52.484;4.766;2022-07-10T06:47:04;4.00;;;1.70;;
14104;SDS011;7130;52.484;4.766;2022-07-10T06:49:51;3.72;;;1.60;;
14104;SDS011;7130;52.484;4.766;2022-07-10T06:52:18;4.30;;;1.75;;
14104;SDS011;7130;52.484;4.766;2022-07-10T06:54:46;4.43;;;2.00;;
14104;SDS011;7130;52.484;4.766;2022-07-10T06:57:14;4.63;;;2.08;;
14104;SDS011;7130;52.484;4.766;2022-07-10T06:59:42;4.15;;;1.85;;
14104;SDS011;7130;52.484;4.766;2022-07-10T07:02:09;4.03;;;2.00;;
14104;SDS011;7130;52.484;4.766;2022-07-10T07:04:36;4.22;;;1.70;;
14104;SDS011;7130;52.484;4.766;2022-07-10T07:07:04;4.38;;;1.88;;
14104;SDS011;7130;52.484;4.766;2022-07-10T07:09:31;3.20;;;1.63;;
14104;SDS011;7130;52.484;4.766;2022-07-10T07:11:58;3.83;;;1.75;;
14104;SDS011;7130;52.484;4.766;2022-07-10T07:14:26;4.22;;;1.90;;
14104;SDS011;7130;52.484;4.766;2022-07-10T07:16:53;3.50;;;1.73;;
14104;SDS011;7130;52.484;4.766;2022-07-10T07:19:25;5.18;;;2.05;;
14104;SDS011;7130;52.484;4.766;2022-07-10T07:21:57;5.22;;;1.83;;
14104;SDS011;7130;52.484;4.766;2022-07-10T07:24:41;4.28;;;1.83;;
14104;SDS011;7130;52.484;4.766;2022-07-10T07:27:09;3.95;;;2.00;;
14104;SDS011;7130;52.484;4.766;2022-07-10T07:29:37;3.60;;;1.77;;
14104;SDS011;7130;52.484;4.766;2022-07-10T07:32:04;4.07;;;1.88;;
14104;SDS011;7130;52.484;4.766;2022-07-10T07:34:32;3.67;;;1.90;;
14104;SDS011;7130;52.484;4.766;2022-07-10T07:36:59;4.25;;;1.70;;
14104;SDS011;7130;52.484;4.766;2022-07-10T07:39:26;3.55;;;1.55;;
14104;SDS011;7130;52.484;4.766;2022-07-10T07:41:53;3.97;;;1.70;;
14104;SDS011;7130;52.484;4.766;2022-07-10T07:44:20;5.97;;;1.90;;
14104;SDS011;7130;52.484;4.766;2022-07-10T07:46:49;4.15;;;1.75;;
14104;SDS011;7130;52.484;4.766;2022-07-10T07:49:16;3.25;;;1.65;;
14104;SDS011;7130;52.484;4.766;2022-07-10T07:51:43;3.40;;;1.70;;
14104;SDS011;7130;52.484;4.766;2022-07-10T07:54:10;4.18;;;1.90;;
14104;SDS011;7130;52.484;4.766;2022-07-10T07:56:37;4.47;;;1.63;;
14104;SDS011;7130;52.484;4.766;2022-07-10T07:59:04;2.53;;;1.70;;
14104;SDS011;7130;52.484;4.766;2022-07-10T08:01:31;4.67;;;2.07;;
14104;SDS011;7130;52.484;4.766;2022-07-10T08:04:00;3.45;;;1.70;;
14104;SDS011;7130;52.484;4.766;2022-07-10T08:06:27;3.28;;;1.77;;
14104;SDS011;7130;52.484;4.766;2022-07-10T08:08:54;4.50;;;1.80;;
14104;SDS011;7130;52.484;4.766;2022-07-10T08:11:21;3.90;;;1.52;;
14104;SDS011;7130;52.484;4.766;2022-07-10T08:13:48;3.25;;;1.70;;
14104;SDS011;7130;52.484;4.766;2022-07-10T08:16:15;3.00;;;1.33;;
14104;SDS011;7130;52.484;4.766;2022-07-10T08:18:42;3.85;;;1.70;;
14104;SDS011;7130;52.484;4.766;2022-07-10T08:21:11;3.28;;;1.60;;
14104;SDS011;7130;52.484;4.766;2022-07-10T08:23:38;3.57;;;1.60;;
14104;SDS011;7130;52.484;4.766;2022-07-10T08:26:05;4.60;;;1.77;;
14104;SDS011;7130;52.484;4.766;2022-07-10T08:28:32;3.45;;;1.58;;
14104;SDS011;7130;52.484;4.766;2022-07-10T08:30:59;3.35;;;1.70;;
14104;SDS011;7130;52.484;4.766;2022-07-10T08:33:27;4.00;;;1.80;;
14104;SDS011;7130;52.484;4.766;2022-07-10T08:35:54;4.05;;;1.70;;
14104;SDS011;7130;52.484;4.766;2022-07-10T08:38:26;3.80;;;1.60;;
14104;SDS011;7130;52.484;4.766;2022-07-10T08:40:54;3.00;;;1.50;;
14104;SDS011;7130;52.484;4.766;2022-07-10T08:43:22;3.88;;;1.60;;
14104;SDS011;7130;52.484;4.766;2022-07-10T08:45:50;4.63;;;1.65;;
14104;SDS011;7130;52.484;4.766;2022-07-10T08:48:19;3.65;;;1.70;;
14104;SDS011;7130;52.484;4.766;2022-07-10T08:50:51;5.28;;;1.88;;
14104;SDS011;7130;52.484;4.766;2022-07-10T08:55:58;3.08;;;1.60;;
14104;SDS011;7130;52.484;4.766;2022-07-10T09:06:06;5.13;;;1.90;;
14104;SDS011;7130;52.484;4.766;2022-07-10T09:08:33;4.38;;;1.80;;
14104;SDS011;7130;52.484;4.766;2022-07-10T09:11:14;3.08;;;1.48;;
14104;SDS011;7130;52.484;4.766;2022-07-10T09:13:48;3.90;;;1.70;;
14104;SDS011;7130;52.484;4.766;2022-07-10T09:16:20;3.78;;;1.63;;
14104;SDS011;7130;52.484;4.766;2022-07-10T09:21:50;3.65;;;1.65;;
14104;SDS011;7130;52.484;4.766;2022-07-10T09:24:18;3.55;;;1.63;;
14104;SDS011;7130;52.484;4.766;2022-07-10T09:26:48;2.97;;;1.45;;
14104;SDS011;7130;52.484;4.766;2022-07-10T09:29:24;2.92;;;1.70;;
14104;SDS011;7130;52.484;4.766;2022-07-10T09:31:52;4.67;;;1.57;;
14104;SDS011;7130;52.484;4.766;2022-07-10T09:34:34;2.88;;;1.48;;
14104;SDS011;7130;52.484;4.766;2022-07-10T09:39:59;3.03;;;1.60;;
14104;SDS011;7130;52.484;4.766;2022-07-10T09:42:29;3.63;;;1.58;;
14104;SDS011;7130;52.484;4.766;2022-07-10T09:45:13;4.70;;;1.60;;
14104;SDS011;7130;52.484;4.766;2022-07-10T09:47:42;4.72;;;1.80;;
14104;SDS011;7130;52.484;4.766;2022-07-10T09:50:25;3.07;;;1.40;;
14104;SDS011;7130;52.484;4.766;2022-07-10T09:52:53;4.20;;;1.60;;
14104;SDS011;7130;52.484;4.766;2022-07-10T09:55:22;3.10;;;1.70;;
14104;SDS011;7130;52.484;4.766;2022-07-10T09:57:53;3.20;;;1.45;;
14104;SDS011;7130;52.484;4.766;2022-07-10T10:00:28;3.13;;;1.20;;
14104;SDS011;7130;52.484;4.766;2022-07-10T10:02:57;2.60;;;1.30;;
14104;SDS011;7130;52.484;4.766;2022-07-10T10:05:35;3.78;;;1.42;;
14104;SDS011;7130;52.484;4.766;2022-07-10T10:10:42;2.55;;;1.38;;
14104;SDS011;7130;52.484;4.766;2022-07-10T10:13:10;2.53;;;1.40;;
14104;SDS011;7130;52.484;4.766;2022-07-10T10:15:41;2.50;;;1.33;;
14104;SDS011;7130;52.484;4.766;2022-07-10T10:20:59;2.80;;;1.30;;
14104;SDS011;7130;52.484;4.766;2022-07-10T10:23:26;3.58;;;1.80;;
14104;SDS011;7130;52.484;4.766;2022-07-10T10:25:55;3.17;;;1.55;;
14104;SDS011;7130;52.484;4.766;2022-07-10T10:28:23;2.97;;;1.57;;
14104;SDS011;7130;52.484;4.766;2022-07-10T10:30:51;4.03;;;1.75;;
14104;SDS011;7130;52.484;4.766;2022-07-10T10:39:09;3.42;;;1.63;;
14104;SDS011;7130;52.484;4.766;2022-07-10T10:41:39;3.10;;;1.60;;
14104;SDS011;7130;52.484;4.766;2022-07-10T10:44:19;3.22;;;1.70;;
14104;SDS011;7130;52.484;4.766;2022-07-10T10:47:02;3.63;;;1.50;;
14104;SDS011;7130;52.484;4.766;2022-07-10T10:49:51;3.05;;;1.40;;
14104;SDS011;7130;52.484;4.766;2022-07-10T10:52:19;4.10;;;1.75;;
14104;SDS011;7130;52.484;4.766;2022-07-10T10:55:00;2.33;;;1.50;;
14104;SDS011;7130;52.484;4.766;2022-07-10T10:57:35;2.90;;;1.67;;
14104;SDS011;7130;52.484;4.766;2022-07-10T11:00:05;2.67;;;1.60;;
14104;SDS011;7130;52.484;4.766;2022-07-10T11:02:34;3.15;;;1.58;;
14104;SDS011;7130;52.484;4.766;2022-07-10T11:07:51;2.78;;;1.52;;
14104;SDS011;7130;52.484;4.766;2022-07-10T11:10:28;2.55;;;1.63;;
14104;SDS011;7130;52.484;4.766;2022-07-10T11:13:00;3.50;;;1.48;;
14104;SDS011;7130;52.484;4.766;2022-07-10T11:15:27;2.72;;;1.45;;
14104;SDS011;7130;52.484;4.766;2022-07-10T11:17:57;4.50;;;1.73;;
14104;SDS011;7130;52.484;4.766;2022-07-10T11:20:25;3.47;;;1.50;;
14104;SDS011;7130;52.484;4.766;2022-07-10T11:23:00;2.88;;;1.50;;
14104;SDS011;7130;52.484;4.766;2022-07-10T11:25:36;3.95;;;1.85;;
14104;SDS011;7130;52.484;4.766;2022-07-10T11:28:08;4.33;;;2.03;;
14104;SDS011;7130;52.484;4.766;2022-07-10T11:30:46;3.58;;;1.60;;
14104;SDS011;7130;52.484;4.766;2022-07-10T11:33:14;3.60;;;1.73;;
14104;SDS011;7130;52.484;4.766;2022-07-10T11:35:44;4.45;;;1.88;;
14104;SDS011;7130;52.484;4.766;2022-07-10T11:38:11;3.53;;;1.42;;
14104;SDS011;7130;52.484;4.766;2022-07-10T11:40:38;3.38;;;1.65;;
14104;SDS011;7130;52.484;4.766;2022-07-10T11:43:05;4.27;;;1.77;;
14104;SDS011;7130;52.484;4.766;2022-07-10T11:45:36;4.32;;;1.85;;
14104;SDS011;7130;52.484;4.766;2022-07-10T11:48:04;2.35;;;1.50;;
14104;SDS011;7130;52.484;4.766;2022-07-10T11:50:34;3.20;;;1.65;;
14104;SDS011;7130;52.484;4.766;2022-07-10T11:53:02;3.60;;;1.75;;
14104;SDS011;7130;52.484;4.766;2022-07-10T11:55:29;3.70;;;1.67;;
14104;SDS011;7130;52.484;4.766;2022-07-10T11:58:11;3.20;;;1.75;;
14104;SDS011;7130;52.484;4.766;2022-07-10T12:00:40;3.75;;;1.58;;
14104;SDS011;7130;52.484;4.766;2022-07-10T12:03:17;2.60;;;1.60;;
14104;SDS011;7130;52.484;4.766;2022-07-10T12:05:45;4.75;;;1.70;;
14104;SDS011;7130;52.484;4.766;2022-07-10T12:08:12;3.37;;;1.40;;
14104;SDS011;7130;52.484;4.766;2022-07-10T12:10:40;3.70;;;1.73;;
14104;SDS011;7130;52.484;4.766;2022-07-10T12:13:08;3.80;;;1.60;;
14104;SDS011;7130;52.484;4.766;2022-07-10T12:15:37;2.75;;;1.77;;
14104;SDS011;7130;52.484;4.766;2022-07-10T12:18:06;3.67;;;1.55;;
14104;SDS011;7130;52.484;4.766;2022-07-10T12:20:34;3.70;;;1.50;;
14104;SDS011;7130;52.484;4.766;2022-07-10T12:23:02;4.20;;;1.80;;
14104;SDS011;7130;52.484;4.766;2022-07-10T12:25:29;2.67;;;1.50;;
14104;SDS011;7130;52.484;4.766;2022-07-10T12:27:57;3.63;;;1.52;;
14104;SDS011;7130;52.484;4.766;2022-07-10T12:30:35;3.83;;;1.63;;
14104;SDS011;7130;52.484;4.766;2022-07-10T12:33:07;2.25;;;1.40;;
14104;SDS011;7130;52.484;4.766;2022-07-10T12:35:45;3.55;;;1.70;;
14104;SDS011;7130;52.484;4.766;2022-07-10T12:38:14;4.03;;;2.00;;
14104;SDS011;7130;52.484;4.766;2022-07-10T12:40:41;4.10;;;1.83;;
14104;SDS011;7130;52.484;4.766;2022-07-10T12:43:08;5.13;;;1.80;;
14104;SDS011;7130;52.484;4.766;2022-07-10T12:45:36;3.30;;;1.83;;
14104;SDS011;7130;52.484;4.766;2022-07-10T12:48:04;3.25;;;1.88;;
14104;SDS011;7130;52.484;4.766;2022-07-10T12:50:33;4.07;;;2.08;;
14104;SDS011;7130;52.484;4.766;2022-07-10T12:53:06;3.83;;;1.90;;
14104;SDS011;7130;52.484;4.766;2022-07-10T12:55:35;3.55;;;1.90;;
14104;SDS011;7130;52.484;4.766;2022-07-10T12:58:04;3.47;;;1.90;;
14104;SDS011;7130;52.484;4.766;2022-07-10T13:00:34;3.50;;;2.00;;
14104;SDS011;7130;52.484;4.766;2022-07-10T13:03:01;2.95;;;1.60;;
14104;SDS011;7130;52.484;4.766;2022-07-10T13:05:30;3.42;;;1.88;;
14104;SDS011;7130;52.484;4.766;2022-07-10T13:08:09;3.40;;;2.00;;
14104;SDS011;7130;52.484;4.766;2022-07-10T13:10:37;3.92;;;1.80;;
14104;SDS011;7130;52.484;4.766;2022-07-10T13:13:05;5.55;;;1.90;;
14104;SDS011;7130;52.484;4.766;2022-07-10T13:15:32;4.10;;;2.00;;
14104;SDS011;7130;52.484;4.766;2022-07-10T13:18:04;3.70;;;1.98;;
14104;SDS011;7130;52.484;4.766;2022-07-10T13:20:31;3.30;;;1.90;;
14104;SDS011;7130;52.484;4.766;2022-07-10T13:22:58;3.73;;;1.70;;
14104;SDS011;7130;52.484;4.766;2022-07-10T13:25:27;3.72;;;1.90;;
14104;SDS011;7130;52.484;4.766;2022-07-10T13:27:54;4.78;;;1.80;;
14104;SDS011;7130;52.484;4.766;2022-07-10T13:30:21;4.03;;;1.90;;
14104;SDS011;7130;52.484;4.766;2022-07-10T13:32:48;3.73;;;1.63;;
14104;SDS011;7130;52.484;4.766;2022-07-10T13:35:15;4.18;;;2.20;;
14104;SDS011;7130;52.484;4.766;2022-07-10T13:37:42;4.32;;;1.80;;
14104;SDS011;7130;52.484;4.766;2022-07-10T13:40:10;3.65;;;1.85;;
14104;SDS011;7130;52.484;4.766;2022-07-10T13:42:39;4.20;;;2.00;;
14104;SDS011;7130;52.484;4.766;2022-07-10T13:45:06;3.55;;;1.77;;
14104;SDS011;7130;52.484;4.766;2022-07-10T13:47:34;4.23;;;1.80;;
14104;SDS011;7130;52.484;4.766;2022-07-10T13:50:01;3.75;;;1.90;;
14104;SDS011;7130;52.484;4.766;2022-07-10T13:52:28;4.13;;;1.80;;
14104;SDS011;7130;52.484;4.766;2022-07-10T13:54:55;4.20;;;2.00;;
14104;SDS011;7130;52.484;4.766;2022-07-10T13:57:22;5.97;;;2.10;;
14104;SDS011;7130;52.484;4.766;2022-07-10T13:59:51;4.65;;;2.05;;
14104;SDS011;7130;52.484;4.766;2022-07-10T14:02:19;3.65;;;1.90;;
14104;SDS011;7130;52.484;4.766;2022-07-10T14:04:46;5.13;;;2.10;;
14104;SDS011;7130;52.484;4.766;2022-07-10T14:07:13;4.50;;;2.33;;
14104;SDS011;7130;52.484;4.766;2022-07-10T14:09:40;3.75;;;2.20;;
14104;SDS011;7130;52.484;4.766;2022-07-10T14:12:08;5.18;;;2.45;;
14104;SDS011;7130;52.484;4.766;2022-07-10T14:14:35;4.03;;;2.20;;
14104;SDS011;7130;52.484;4.766;2022-07-10T14:17:04;5.70;;;2.72;;
14104;SDS011;7130;52.484;4.766;2022-07-10T14:19:31;5.13;;;2.50;;
14104;SDS011;7130;52.484;4.766;2022-07-10T14:21:58;4.30;;;2.17;;
14104;SDS011;7130;52.484;4.766;2022-07-10T14:24:25;4.40;;;2.38;;
14104;SDS011;7130;52.484;4.766;2022-07-10T14:26:52;5.72;;;2.45;;
14104;SDS011;7130;52.484;4.766;2022-07-10T14:29:20;5.00;;;2.50;;
14104;SDS011;7130;52.484;4.766;2022-07-10T14:31:47;5.90;;;2.33;;
14104;SDS011;7130;52.484;4.766;2022-07-10T14:34:16;4.78;;;2.50;;
14104;SDS011;7130;52.484;4.766;2022-07-10T14:36:43;4.90;;;2.28;;
14104;SDS011;7130;52.484;4.766;2022-07-10T14:39:11;4.38;;;2.35;;
14104;SDS011;7130;52.484;4.766;2022-07-10T14:41:38;4.63;;;2.40;;
14104;SDS011;7130;52.484;4.766;2022-07-10T14:44:05;4.10;;;2.40;;
14104;SDS011;7130;52.484;4.766;2022-07-10T14:46:32;3.45;;;2.38;;
14104;SDS011;7130;52.484;4.766;2022-07-10T14:48:59;6.13;;;2.50;;
14104;SDS011;7130;52.484;4.766;2022-07-10T14:51:28;5.25;;;2.20;;
14104;SDS011;7130;52.484;4.766;2022-07-10T14:53:55;4.95;;;2.45;;
14104;SDS011;7130;52.484;4.766;2022-07-10T14:56:23;4.60;;;2.67;;
14104;SDS011;7130;52.484;4.766;2022-07-10T14:58:50;4.18;;;2.70;;
14104;SDS011;7130;52.484;4.766;2022-07-10T15:01:17;6.10;;;2.55;;
14104;SDS011;7130;52.484;4.766;2022-07-10T15:03:44;7.22;;;3.05;;
14104;SDS011;7130;52.484;4.766;2022-07-10T15:06:11;5.45;;;3.08;;
14104;SDS011;7130;52.484;4.766;2022-07-10T15:08:40;6.00;;;2.93;;
14104;SDS011;7130;52.484;4.766;2022-07-10T15:11:07;5.18;;;2.92;;
14104;SDS011;7130;52.484;4.766;2022-07-10T15:13:34;5.35;;;2.63;;
14104;SDS011;7130;52.484;4.766;2022-07-10T15:16:01;5.43;;;2.80;;
14104;SDS011;7130;52.484;4.766;2022-07-10T15:18:28;4.83;;;2.67;;
14104;SDS011;7130;52.484;4.766;2022-07-10T15:20:55;6.20;;;2.97;;
14104;SDS011;7130;52.484;4.766;2022-07-10T15:23:23;6.53;;;2.83;;
14104;SDS011;7130;52.484;4.766;2022-07-10T15:25:52;6.30;;;2.80;;
14104;SDS011;7130;52.484;4.766;2022-07-10T15:28:19;4.95;;;2.85;;
14104;SDS011;7130;52.484;4.766;2022-07-10T15:30:46;7.57;;;3.40;;
14104;SDS011;7130;52.484;4.766;2022-07-10T15:33:13;5.55;;;2.95;;
14104;SDS011;7130;52.484;4.766;2022-07-10T15:35:40;6.05;;;3.13;;
14104;SDS011;7130;52.484;4.766;2022-07-10T15:38:07;7.72;;;3.38;;